sensor_id;sensor_type;location;lat;lon;timestamp;P1;durP1;ratioP1;P2;durP2;ratioP2
31282;SDS011;17915;52.540;13.604;2023-05-10T00:01:21;6.33;;;5.50;;
31282;SDS011;17915;52.540;13.604;2023-05-10T00:03:46;9.43;;;5.23;;
31282;SDS011;17915;52.540;13.604;2023-05-10T00:06:11;7.03;;;5.20;;
31282;SDS011;17915;52.540;13.604;2023-05-10T00:08:37;11.30;;;4.80;;
31282;SDS011;17915;52.540;13.604;2023-05-10T00:11:02;9.47;;;5.57;;
31282;SDS011;17915;52.540;13.604;2023-05-10T00:13:27;6.93;;;5.27;;
31282;SDS011;17915;52.540;13.604;2023-05-10T00:15:53;7.80;;;6.33;;
31282;SDS011;17915;52.540;13.604;2023-05-10T00:18:18;8.53;;;5.57;;
31282;SDS011;17915;52.540;13.604;2023-05-10T00:20:44;8.47;;;5.67;;
31282;SDS011;17915;52.540;13.604;2023-05-10T00:23:11;13.77;;;6.07;;
31282;SDS011;17915;52.540;13.604;2023-05-10T00:25:36;5.93;;;5.50;;
31282;SDS011;17915;52.540;13.604;2023-05-10T00:28:02;7.80;;;5.30;;
31282;SDS011;17915;52.540;13.604;2023-05-10T00:30:27;9.13;;;5.77;;
31282;SDS011;17915;52.540;13.604;2023-05-10T00:32:53;7.20;;;4.37;;
31282;SDS011;17915;52.540;13.604;2023-05-10T00:35:18;4.90;;;4.60;;
31282;SDS011;17915;52.540;13.604;2023-05-10T00:37:43;13.00;;;5.37;;
31282;SDS011;17915;52.540;13.604;2023-05-10T00:40:09;7.43;;;5.40;;
31282;SDS011;17915;52.540;13.604;2023-05-10T00:42:35;8.30;;;5.05;;
31282;SDS011;17915;52.540;13.604;2023-05-10T00:45:01;6.93;;;5.83;;
31282;SDS011;17915;52.540;13.604;2023-05-10T00:47:26;6.83;;;4.60;;
31282;SDS011;17915;52.540;13.604;2023-05-10T00:49:52;10.32;;;4.90;;
31282;SDS011;17915;52.540;13.604;2023-05-10T00:52:18;22.77;;;8.23;;
31282;SDS011;17915;52.540;13.604;2023-05-10T00:54:43;8.17;;;5.70;;
31282;SDS011;17915;52.540;13.604;2023-05-10T00:57:08;5.00;;;4.50;;
31282;SDS011;17915;52.540;13.604;2023-05-10T00:59:34;5.83;;;5.33;;
31282;SDS011;17915;52.540;13.604;2023-05-10T01:01:59;15.27;;;5.03;;
31282;SDS011;17915;52.540;13.604;2023-05-10T01:04:25;8.33;;;5.80;;
31282;SDS011;17915;52.540;13.604;2023-05-10T01:06:51;7.63;;;4.73;;
31282;SDS011;17915;52.540;13.604;2023-05-10T01:09:17;6.05;;;5.35;;
31282;SDS011;17915;52.540;13.604;2023-05-10T01:11:44;10.35;;;5.45;;
31282;SDS011;17915;52.540;13.604;2023-05-10T01:14:10;9.95;;;5.60;;
31282;SDS011;17915;52.540;13.604;2023-05-10T01:16:36;8.50;;;6.17;;
31282;SDS011;17915;52.540;13.604;2023-05-10T01:19:03;7.28;;;6.15;;
31282;SDS011;17915;52.540;13.604;2023-05-10T01:24:23;8.30;;;5.10;;
31282;SDS011;17915;52.540;13.604;2023-05-10T01:35:40;8.88;;;4.97;;
31282;SDS011;17915;52.540;13.604;2023-05-10T01:44:08;5.43;;;4.90;;
31282;SDS011;17915;52.540;13.604;2023-05-10T01:46:35;7.50;;;6.00;;
31282;SDS011;17915;52.540;13.604;2023-05-10T01:49:08;27.58;;;6.28;;
31282;SDS011;17915;52.540;13.604;2023-05-10T01:51:48;5.90;;;5.38;;
31282;SDS011;17915;52.540;13.604;2023-05-10T01:54:20;22.20;;;6.18;;
31282;SDS011;17915;52.540;13.604;2023-05-10T01:56:47;17.88;;;4.75;;
31282;SDS011;17915;52.540;13.604;2023-05-10T01:59:29;9.55;;;5.15;;
31282;SDS011;17915;52.540;13.604;2023-05-10T02:01:57;5.07;;;4.35;;
31282;SDS011;17915;52.540;13.604;2023-05-10T02:04:24;9.20;;;5.20;;
31282;SDS011;17915;52.540;13.604;2023-05-10T02:06:50;9.77;;;4.82;;
31282;SDS011;17915;52.540;13.604;2023-05-10T02:09:16;8.02;;;5.45;;
31282;SDS011;17915;52.540;13.604;2023-05-10T02:11:42;10.63;;;5.45;;
31282;SDS011;17915;52.540;13.604;2023-05-10T02:14:09;8.50;;;4.65;;
31282;SDS011;17915;52.540;13.604;2023-05-10T02:19:00;7.88;;;4.65;;
31282;SDS011;17915;52.540;13.604;2023-05-10T02:21:27;5.82;;;5.00;;
31282;SDS011;17915;52.540;13.604;2023-05-10T02:23:53;8.98;;;5.15;;
31282;SDS011;17915;52.540;13.604;2023-05-10T02:26:19;8.15;;;5.18;;
31282;SDS011;17915;52.540;13.604;2023-05-10T02:28:46;5.68;;;5.18;;
31282;SDS011;17915;52.540;13.604;2023-05-10T02:31:12;7.03;;;5.97;;
31282;SDS011;17915;52.540;13.604;2023-05-10T02:33:39;12.82;;;5.05;;
31282;SDS011;17915;52.540;13.604;2023-05-10T02:36:05;5.15;;;4.43;;
31282;SDS011;17915;52.540;13.604;2023-05-10T02:38:32;9.10;;;5.65;;
31282;SDS011;17915;52.540;13.604;2023-05-10T02:40:59;6.93;;;5.33;;
31282;SDS011;17915;52.540;13.604;2023-05-10T02:43:26;5.82;;;5.20;;
31282;SDS011;17915;52.540;13.604;2023-05-10T02:45:53;6.50;;;4.72;;
31282;SDS011;17915;52.540;13.604;2023-05-10T02:48:19;5.93;;;5.03;;
31282;SDS011;17915;52.540;13.604;2023-05-10T02:50:44;8.33;;;5.13;;
31282;SDS011;17915;52.540;13.604;2023-05-10T02:53:10;6.07;;;4.85;;
31282;SDS011;17915;52.540;13.604;2023-05-10T02:55:37;7.65;;;4.93;;
31282;SDS011;17915;52.540;13.604;2023-05-10T02:58:05;8.10;;;5.10;;
31282;SDS011;17915;52.540;13.604;2023-05-10T03:00:30;8.07;;;5.13;;
31282;SDS011;17915;52.540;13.604;2023-05-10T03:02:56;6.60;;;5.67;;
31282;SDS011;17915;52.540;13.604;2023-05-10T03:05:22;8.27;;;4.20;;
31282;SDS011;17915;52.540;13.604;2023-05-10T03:07:47;5.57;;;5.07;;
31282;SDS011;17915;52.540;13.604;2023-05-10T03:10:13;10.27;;;4.83;;
31282;SDS011;17915;52.540;13.604;2023-05-10T03:15:15;7.78;;;4.68;;
31282;SDS011;17915;52.540;13.604;2023-05-10T03:17:55;11.07;;;5.15;;
31282;SDS011;17915;52.540;13.604;2023-05-10T03:20:35;6.10;;;4.90;;
31282;SDS011;17915;52.540;13.604;2023-05-10T03:25:44;7.75;;;4.85;;
31282;SDS011;17915;52.540;13.604;2023-05-10T03:28:12;12.25;;;5.93;;
31282;SDS011;17915;52.540;13.604;2023-05-10T03:30:37;8.40;;;5.40;;
31282;SDS011;17915;52.540;13.604;2023-05-10T03:33:06;4.80;;;4.40;;
31282;SDS011;17915;52.540;13.604;2023-05-10T03:35:32;9.60;;;6.13;;
31282;SDS011;17915;52.540;13.604;2023-05-10T03:37:57;8.17;;;4.03;;
31282;SDS011;17915;52.540;13.604;2023-05-10T03:40:22;4.97;;;4.47;;
31282;SDS011;17915;52.540;13.604;2023-05-10T03:42:48;8.35;;;4.47;;
31282;SDS011;17915;52.540;13.604;2023-05-10T03:45:14;7.17;;;5.00;;
31282;SDS011;17915;52.540;13.604;2023-05-10T03:47:40;6.73;;;4.63;;
31282;SDS011;17915;52.540;13.604;2023-05-10T03:50:05;14.60;;;4.70;;
31282;SDS011;17915;52.540;13.604;2023-05-10T03:52:31;11.15;;;4.50;;
31282;SDS011;17915;52.540;13.604;2023-05-10T03:54:57;11.70;;;6.83;;
31282;SDS011;17915;52.540;13.604;2023-05-10T03:57:22;5.73;;;4.03;;
31282;SDS011;17915;52.540;13.604;2023-05-10T03:59:47;7.30;;;5.60;;
31282;SDS011;17915;52.540;13.604;2023-05-10T04:02:13;5.17;;;4.47;;
31282;SDS011;17915;52.540;13.604;2023-05-10T04:04:38;10.40;;;4.90;;
31282;SDS011;17915;52.540;13.604;2023-05-10T04:07:03;5.93;;;4.20;;
31282;SDS011;17915;52.540;13.604;2023-05-10T04:09:29;6.77;;;4.53;;
31282;SDS011;17915;52.540;13.604;2023-05-10T04:11:54;11.27;;;4.43;;
31282;SDS011;17915;52.540;13.604;2023-05-10T04:14:20;11.43;;;5.03;;
31282;SDS011;17915;52.540;13.604;2023-05-10T04:16:45;14.93;;;5.60;;
31282;SDS011;17915;52.540;13.604;2023-05-10T04:19:10;6.10;;;4.80;;
31282;SDS011;17915;52.540;13.604;2023-05-10T04:21:36;7.43;;;3.53;;
31282;SDS011;17915;52.540;13.604;2023-05-10T04:24:01;4.17;;;3.77;;
31282;SDS011;17915;52.540;13.604;2023-05-10T04:26:27;4.20;;;3.80;;
31282;SDS011;17915;52.540;13.604;2023-05-10T04:28:52;8.03;;;3.67;;
31282;SDS011;17915;52.540;13.604;2023-05-10T04:31:18;9.10;;;3.90;;
31282;SDS011;17915;52.540;13.604;2023-05-10T04:33:43;6.73;;;3.80;;
31282;SDS011;17915;52.540;13.604;2023-05-10T04:36:08;7.63;;;4.23;;
31282;SDS011;17915;52.540;13.604;2023-05-10T04:38:34;7.67;;;4.57;;
31282;SDS011;17915;52.540;13.604;2023-05-10T04:41:08;6.73;;;4.63;;
31282;SDS011;17915;52.540;13.604;2023-05-10T04:43:35;6.03;;;4.20;;
31282;SDS011;17915;52.540;13.604;2023-05-10T04:46:01;4.72;;;4.22;;
31282;SDS011;17915;52.540;13.604;2023-05-10T04:48:26;4.20;;;3.83;;
31282;SDS011;17915;52.540;13.604;2023-05-10T04:50:52;4.13;;;3.60;;
31282;SDS011;17915;52.540;13.604;2023-05-10T04:53:17;5.97;;;4.20;;
31282;SDS011;17915;52.540;13.604;2023-05-10T04:55:42;4.90;;;4.40;;
31282;SDS011;17915;52.540;13.604;2023-05-10T04:58:10;10.57;;;3.80;;
31282;SDS011;17915;52.540;13.604;2023-05-10T05:00:35;7.55;;;3.28;;
31282;SDS011;17915;52.540;13.604;2023-05-10T05:03:01;5.27;;;3.43;;
31282;SDS011;17915;52.540;13.604;2023-05-10T05:05:26;5.20;;;3.97;;
31282;SDS011;17915;52.540;13.604;2023-05-10T05:07:51;11.20;;;4.53;;
31282;SDS011;17915;52.540;13.604;2023-05-10T05:10:17;5.50;;;3.30;;
31282;SDS011;17915;52.540;13.604;2023-05-10T05:12:42;7.07;;;4.03;;
31282;SDS011;17915;52.540;13.604;2023-05-10T05:15:08;5.30;;;3.80;;
31282;SDS011;17915;52.540;13.604;2023-05-10T05:17:37;17.05;;;6.43;;
31282;SDS011;17915;52.540;13.604;2023-05-10T05:20:02;6.80;;;4.10;;
31282;SDS011;17915;52.540;13.604;2023-05-10T05:22:28;11.93;;;4.45;;
31282;SDS011;17915;52.540;13.604;2023-05-10T05:24:54;7.20;;;3.97;;
31282;SDS011;17915;52.540;13.604;2023-05-10T05:27:20;8.88;;;4.20;;
31282;SDS011;17915;52.540;13.604;2023-05-10T05:29:52;5.68;;;4.40;;
31282;SDS011;17915;52.540;13.604;2023-05-10T05:32:18;9.50;;;4.35;;
31282;SDS011;17915;52.540;13.604;2023-05-10T05:34:44;4.40;;;4.00;;
31282;SDS011;17915;52.540;13.604;2023-05-10T05:37:18;15.70;;;4.03;;
31282;SDS011;17915;52.540;13.604;2023-05-10T05:39:44;13.95;;;3.72;;
31282;SDS011;17915;52.540;13.604;2023-05-10T05:42:10;3.80;;;3.50;;
31282;SDS011;17915;52.540;13.604;2023-05-10T05:44:36;4.13;;;3.72;;
31282;SDS011;17915;52.540;13.604;2023-05-10T05:47:01;6.27;;;4.13;;
31282;SDS011;17915;52.540;13.604;2023-05-10T05:49:27;4.82;;;3.03;;
31282;SDS011;17915;52.540;13.604;2023-05-10T05:51:52;13.57;;;3.60;;
31282;SDS011;17915;52.540;13.604;2023-05-10T05:54:18;9.20;;;3.50;;
31282;SDS011;17915;52.540;13.604;2023-05-10T05:56:43;4.10;;;3.50;;
31282;SDS011;17915;52.540;13.604;2023-05-10T05:59:09;5.30;;;2.93;;
31282;SDS011;17915;52.540;13.604;2023-05-10T06:01:37;7.75;;;3.65;;
31282;SDS011;17915;52.540;13.604;2023-05-10T06:04:02;3.43;;;3.13;;
31282;SDS011;17915;52.540;13.604;2023-05-10T06:06:28;3.43;;;3.00;;
31282;SDS011;17915;52.540;13.604;2023-05-10T06:08:53;7.00;;;3.50;;
31282;SDS011;17915;52.540;13.604;2023-05-10T06:11:19;7.03;;;3.53;;
31282;SDS011;17915;52.540;13.604;2023-05-10T06:13:46;5.22;;;3.42;;
31282;SDS011;17915;52.540;13.604;2023-05-10T06:16:12;11.77;;;3.00;;
31282;SDS011;17915;52.540;13.604;2023-05-10T06:18:38;9.93;;;4.70;;
31282;SDS011;17915;52.540;13.604;2023-05-10T06:21:03;4.33;;;3.03;;
31282;SDS011;17915;52.540;13.604;2023-05-10T06:23:29;3.83;;;3.40;;
31282;SDS011;17915;52.540;13.604;2023-05-10T06:25:54;3.70;;;2.77;;
31282;SDS011;17915;52.540;13.604;2023-05-10T06:28:19;3.07;;;2.77;;
31282;SDS011;17915;52.540;13.604;2023-05-10T06:30:45;3.87;;;2.80;;
31282;SDS011;17915;52.540;13.604;2023-05-10T06:33:10;4.13;;;3.27;;
31282;SDS011;17915;52.540;13.604;2023-05-10T06:35:35;3.57;;;2.70;;
31282;SDS011;17915;52.540;13.604;2023-05-10T06:38:01;2.67;;;2.47;;
31282;SDS011;17915;52.540;13.604;2023-05-10T06:40:27;4.70;;;3.67;;
31282;SDS011;17915;52.540;13.604;2023-05-10T06:42:52;3.10;;;2.63;;
31282;SDS011;17915;52.540;13.604;2023-05-10T06:45:18;4.57;;;3.13;;
31282;SDS011;17915;52.540;13.604;2023-05-10T06:47:43;5.30;;;3.50;;
31282;SDS011;17915;52.540;13.604;2023-05-10T06:50:09;5.47;;;3.27;;
31282;SDS011;17915;52.540;13.604;2023-05-10T06:52:35;4.63;;;3.30;;
31282;SDS011;17915;52.540;13.604;2023-05-10T06:55:00;4.00;;;2.77;;
31282;SDS011;17915;52.540;13.604;2023-05-10T06:57:26;3.50;;;2.70;;
31282;SDS011;17915;52.540;13.604;2023-05-10T06:59:52;9.13;;;3.53;;
31282;SDS011;17915;52.540;13.604;2023-05-10T07:02:17;3.87;;;3.63;;
31282;SDS011;17915;52.540;13.604;2023-05-10T07:04:43;5.83;;;2.57;;
31282;SDS011;17915;52.540;13.604;2023-05-10T07:07:08;8.47;;;3.57;;
31282;SDS011;17915;52.540;13.604;2023-05-10T07:09:34;11.60;;;4.33;;
31282;SDS011;17915;52.540;13.604;2023-05-10T07:11:59;6.63;;;3.43;;
31282;SDS011;17915;52.540;13.604;2023-05-10T07:14:24;6.50;;;3.73;;
31282;SDS011;17915;52.540;13.604;2023-05-10T07:16:50;2.73;;;2.53;;
31282;SDS011;17915;52.540;13.604;2023-05-10T07:19:15;2.87;;;2.50;;
31282;SDS011;17915;52.540;13.604;2023-05-10T07:21:41;9.47;;;2.97;;
31282;SDS011;17915;52.540;13.604;2023-05-10T07:24:08;5.05;;;2.72;;
31282;SDS011;17915;52.540;13.604;2023-05-10T07:26:33;2.57;;;2.37;;
31282;SDS011;17915;52.540;13.604;2023-05-10T07:28:59;3.87;;;2.73;;
31282;SDS011;17915;52.540;13.604;2023-05-10T07:31:24;4.73;;;2.90;;
31282;SDS011;17915;52.540;13.604;2023-05-10T07:33:49;2.83;;;2.33;;
31282;SDS011;17915;52.540;13.604;2023-05-10T07:36:15;7.37;;;2.83;;
31282;SDS011;17915;52.540;13.604;2023-05-10T07:38:40;4.93;;;2.73;;
31282;SDS011;17915;52.540;13.604;2023-05-10T07:41:06;2.83;;;2.60;;
31282;SDS011;17915;52.540;13.604;2023-05-10T07:43:31;2.63;;;2.30;;
31282;SDS011;17915;52.540;13.604;2023-05-10T07:45:56;3.07;;;2.53;;
31282;SDS011;17915;52.540;13.604;2023-05-10T07:48:22;6.18;;;2.72;;
31282;SDS011;17915;52.540;13.604;2023-05-10T07:50:48;3.20;;;2.33;;
31282;SDS011;17915;52.540;13.604;2023-05-10T07:53:13;4.10;;;3.03;;
31282;SDS011;17915;52.540;13.604;2023-05-10T07:55:39;2.73;;;2.53;;
31282;SDS011;17915;52.540;13.604;2023-05-10T07:58:04;5.27;;;2.80;;
31282;SDS011;17915;52.540;13.604;2023-05-10T08:00:29;6.80;;;2.87;;
31282;SDS011;17915;52.540;13.604;2023-05-10T08:02:55;5.60;;;3.10;;
31282;SDS011;17915;52.540;13.604;2023-05-10T08:05:20;2.67;;;2.47;;
31282;SDS011;17915;52.540;13.604;2023-05-10T08:07:45;6.13;;;3.37;;
31282;SDS011;17915;52.540;13.604;2023-05-10T08:10:11;9.47;;;3.30;;
31282;SDS011;17915;52.540;13.604;2023-05-10T08:12:36;5.10;;;2.60;;
31282;SDS011;17915;52.540;13.604;2023-05-10T08:15:02;2.47;;;2.38;;
31282;SDS011;17915;52.540;13.604;2023-05-10T08:17:28;4.20;;;3.63;;
31282;SDS011;17915;52.540;13.604;2023-05-10T08:19:54;11.00;;;2.90;;
31282;SDS011;17915;52.540;13.604;2023-05-10T08:22:19;4.87;;;3.20;;
31282;SDS011;17915;52.540;13.604;2023-05-10T08:24:44;5.23;;;2.97;;
31282;SDS011;17915;52.540;13.604;2023-05-10T08:27:10;4.57;;;2.80;;
31282;SDS011;17915;52.540;13.604;2023-05-10T08:29:35;2.83;;;2.53;;
31282;SDS011;17915;52.540;13.604;2023-05-10T08:32:00;6.87;;;3.10;;
31282;SDS011;17915;52.540;13.604;2023-05-10T08:34:26;3.03;;;2.70;;
31282;SDS011;17915;52.540;13.604;2023-05-10T08:36:52;4.68;;;2.83;;
31282;SDS011;17915;52.540;13.604;2023-05-10T08:39:17;2.93;;;2.57;;
31282;SDS011;17915;52.540;13.604;2023-05-10T08:41:43;5.90;;;3.37;;
31282;SDS011;17915;52.540;13.604;2023-05-10T08:46:35;3.30;;;2.78;;
31282;SDS011;17915;52.540;13.604;2023-05-10T08:49:03;5.25;;;3.33;;
31282;SDS011;17915;52.540;13.604;2023-05-10T08:51:29;4.75;;;2.65;;
31282;SDS011;17915;52.540;13.604;2023-05-10T08:53:59;6.30;;;2.50;;
31282;SDS011;17915;52.540;13.604;2023-05-10T08:56:25;2.78;;;2.20;;
31282;SDS011;17915;52.540;13.604;2023-05-10T08:58:51;5.55;;;3.17;;
31282;SDS011;17915;52.540;13.604;2023-05-10T09:01:16;4.53;;;2.20;;
31282;SDS011;17915;52.540;13.604;2023-05-10T09:06:08;2.42;;;2.28;;
31282;SDS011;17915;52.540;13.604;2023-05-10T09:08:34;2.80;;;2.60;;
31282;SDS011;17915;52.540;13.604;2023-05-10T09:10:59;3.35;;;2.72;;
31282;SDS011;17915;52.540;13.604;2023-05-10T09:13:26;5.95;;;2.97;;
31282;SDS011;17915;52.540;13.604;2023-05-10T09:15:51;6.53;;;3.22;;
31282;SDS011;17915;52.540;13.604;2023-05-10T09:18:17;5.20;;;3.22;;
31282;SDS011;17915;52.540;13.604;2023-05-10T09:20:43;3.80;;;3.17;;
31282;SDS011;17915;52.540;13.604;2023-05-10T09:23:08;3.43;;;3.10;;
31282;SDS011;17915;52.540;13.604;2023-05-10T09:25:34;7.50;;;3.60;;
31282;SDS011;17915;52.540;13.604;2023-05-10T09:28:00;4.38;;;2.78;;
31282;SDS011;17915;52.540;13.604;2023-05-10T09:30:26;3.63;;;2.87;;
31282;SDS011;17915;52.540;13.604;2023-05-10T09:32:52;9.00;;;3.08;;
31282;SDS011;17915;52.540;13.604;2023-05-10T09:35:19;3.15;;;2.88;;
31282;SDS011;17915;52.540;13.604;2023-05-10T09:37:47;3.88;;;2.53;;
31282;SDS011;17915;52.540;13.604;2023-05-10T09:40:16;4.28;;;3.92;;
31282;SDS011;17915;52.540;13.604;2023-05-10T09:42:57;8.65;;;2.63;;
31282;SDS011;17915;52.540;13.604;2023-05-10T09:45:23;9.93;;;3.40;;
31282;SDS011;17915;52.540;13.604;2023-05-10T09:47:49;7.15;;;2.50;;
31282;SDS011;17915;52.540;13.604;2023-05-10T09:50:15;17.50;;;4.60;;
31282;SDS011;17915;52.540;13.604;2023-05-10T09:55:13;4.55;;;2.83;;
31282;SDS011;17915;52.540;13.604;2023-05-10T09:57:39;3.47;;;2.93;;
31282;SDS011;17915;52.540;13.604;2023-05-10T10:00:05;3.30;;;3.00;;
31282;SDS011;17915;52.540;13.604;2023-05-10T10:02:31;2.63;;;2.47;;
31282;SDS011;17915;52.540;13.604;2023-05-10T10:04:56;8.43;;;3.13;;
31282;SDS011;17915;52.540;13.604;2023-05-10T10:07:22;2.87;;;2.67;;
31282;SDS011;17915;52.540;13.604;2023-05-10T10:09:50;2.92;;;2.20;;
31282;SDS011;17915;52.540;13.604;2023-05-10T10:12:16;3.15;;;2.88;;
31282;SDS011;17915;52.540;13.604;2023-05-10T10:14:41;3.03;;;2.70;;
31282;SDS011;17915;52.540;13.604;2023-05-10T10:17:06;9.27;;;4.97;;
31282;SDS011;17915;52.540;13.604;2023-05-10T10:19:33;3.03;;;2.70;;
31282;SDS011;17915;52.540;13.604;2023-05-10T10:21:59;11.70;;;2.65;;
31282;SDS011;17915;52.540;13.604;2023-05-10T10:24:25;2.97;;;2.47;;
31282;SDS011;17915;52.540;13.604;2023-05-10T10:26:51;2.70;;;2.50;;
31282;SDS011;17915;52.540;13.604;2023-05-10T10:29:23;5.30;;;2.75;;
31282;SDS011;17915;52.540;13.604;2023-05-10T10:31:56;2.58;;;2.38;;
31282;SDS011;17915;52.540;13.604;2023-05-10T10:34:43;7.40;;;2.80;;
31282;SDS011;17915;52.540;13.604;2023-05-10T10:37:08;3.08;;;2.88;;
31282;SDS011;17915;52.540;13.604;2023-05-10T10:39:34;2.53;;;2.42;;
31282;SDS011;17915;52.540;13.604;2023-05-10T10:42:01;4.63;;;2.60;;
31282;SDS011;17915;52.540;13.604;2023-05-10T10:52:20;2.67;;;2.47;;
31282;SDS011;17915;52.540;13.604;2023-05-10T10:57:22;4.40;;;2.72;;
31282;SDS011;17915;52.540;13.604;2023-05-10T10:59:47;2.50;;;2.33;;
31282;SDS011;17915;52.540;13.604;2023-05-10T11:08:11;8.32;;;2.97;;
31282;SDS011;17915;52.540;13.604;2023-05-10T11:10:37;10.70;;;3.10;;
31282;SDS011;17915;52.540;13.604;2023-05-10T11:13:06;7.65;;;2.75;;
31282;SDS011;17915;52.540;13.604;2023-05-10T11:15:36;4.72;;;3.00;;
31282;SDS011;17915;52.540;13.604;2023-05-10T11:20:57;4.40;;;2.95;;
31282;SDS011;17915;52.540;13.604;2023-05-10T11:26:09;2.55;;;2.40;;
31282;SDS011;17915;52.540;13.604;2023-05-10T11:28:42;7.82;;;3.08;;
31282;SDS011;17915;52.540;13.604;2023-05-10T11:31:08;11.27;;;2.75;;
31282;SDS011;17915;52.540;13.604;2023-05-10T11:33:50;5.63;;;3.03;;
31282;SDS011;17915;52.540;13.604;2023-05-10T11:36:17;4.30;;;2.13;;
31282;SDS011;17915;52.540;13.604;2023-05-10T11:38:44;3.17;;;2.80;;
31282;SDS011;17915;52.540;13.604;2023-05-10T11:41:11;2.60;;;2.40;;
31282;SDS011;17915;52.540;13.604;2023-05-10T11:43:38;9.60;;;2.65;;
31282;SDS011;17915;52.540;13.604;2023-05-10T11:46:04;4.68;;;2.58;;
31282;SDS011;17915;52.540;13.604;2023-05-10T11:48:31;3.55;;;2.92;;
31282;SDS011;17915;52.540;13.604;2023-05-10T11:50:56;11.43;;;2.60;;
31282;SDS011;17915;52.540;13.604;2023-05-10T11:53:23;2.83;;;1.95;;
31282;SDS011;17915;52.540;13.604;2023-05-10T11:55:50;8.63;;;2.67;;
31282;SDS011;17915;52.540;13.604;2023-05-10T11:58:17;7.67;;;2.07;;
31282;SDS011;17915;52.540;13.604;2023-05-10T12:00:43;8.73;;;2.33;;
31282;SDS011;17915;52.540;13.604;2023-05-10T12:03:08;5.23;;;3.03;;
31282;SDS011;17915;52.540;13.604;2023-05-10T12:05:35;3.00;;;2.70;;
31282;SDS011;17915;52.540;13.604;2023-05-10T12:08:11;7.18;;;2.80;;
31282;SDS011;17915;52.540;13.604;2023-05-10T12:10:37;5.80;;;2.47;;
31282;SDS011;17915;52.540;13.604;2023-05-10T12:13:03;14.03;;;2.23;;
31282;SDS011;17915;52.540;13.604;2023-05-10T12:15:28;12.90;;;2.70;;
31282;SDS011;17915;52.540;13.604;2023-05-10T12:17:53;8.00;;;2.63;;
31282;SDS011;17915;52.540;13.604;2023-05-10T12:20:20;12.98;;;2.30;;
31282;SDS011;17915;52.540;13.604;2023-05-10T12:22:47;8.23;;;2.28;;
31282;SDS011;17915;52.540;13.604;2023-05-10T12:25:15;4.90;;;2.70;;
31282;SDS011;17915;52.540;13.604;2023-05-10T12:27:47;8.57;;;2.65;;
31282;SDS011;17915;52.540;13.604;2023-05-10T12:30:13;9.48;;;2.80;;
31282;SDS011;17915;52.540;13.604;2023-05-10T12:32:44;4.68;;;1.90;;
31282;SDS011;17915;52.540;13.604;2023-05-10T12:35:10;7.30;;;2.20;;
31282;SDS011;17915;52.540;13.604;2023-05-10T12:37:35;5.75;;;2.20;;
31282;SDS011;17915;52.540;13.604;2023-05-10T12:40:05;3.92;;;3.55;;
31282;SDS011;17915;52.540;13.604;2023-05-10T12:42:31;18.85;;;4.20;;
31282;SDS011;17915;52.540;13.604;2023-05-10T12:44:57;9.00;;;2.63;;
31282;SDS011;17915;52.540;13.604;2023-05-10T12:47:22;4.97;;;2.73;;
31282;SDS011;17915;52.540;13.604;2023-05-10T12:49:47;13.87;;;2.40;;
31282;SDS011;17915;52.540;13.604;2023-05-10T12:52:13;11.57;;;3.77;;
31282;SDS011;17915;52.540;13.604;2023-05-10T12:54:38;3.93;;;2.30;;
31282;SDS011;17915;52.540;13.604;2023-05-10T12:57:04;4.70;;;2.67;;
31282;SDS011;17915;52.540;13.604;2023-05-10T12:59:29;3.73;;;2.80;;
31282;SDS011;17915;52.540;13.604;2023-05-10T13:01:55;6.07;;;2.42;;
31282;SDS011;17915;52.540;13.604;2023-05-10T13:04:20;2.73;;;2.00;;
31282;SDS011;17915;52.540;13.604;2023-05-10T13:06:45;18.43;;;3.47;;
31282;SDS011;17915;52.540;13.604;2023-05-10T13:09:11;6.17;;;2.87;;
31282;SDS011;17915;52.540;13.604;2023-05-10T13:11:36;2.90;;;2.00;;
31282;SDS011;17915;52.540;13.604;2023-05-10T13:14:01;3.40;;;2.00;;
31282;SDS011;17915;52.540;13.604;2023-05-10T13:18:53;2.47;;;2.05;;
31282;SDS011;17915;52.540;13.604;2023-05-10T13:21:18;5.03;;;2.37;;
31282;SDS011;17915;52.540;13.604;2023-05-10T13:23:44;11.47;;;2.00;;
31282;SDS011;17915;52.540;13.604;2023-05-10T13:26:09;6.80;;;3.33;;
31282;SDS011;17915;52.540;13.604;2023-05-10T13:28:35;4.10;;;2.20;;
31282;SDS011;17915;52.540;13.604;2023-05-10T13:31:00;5.07;;;2.63;;
31282;SDS011;17915;52.540;13.604;2023-05-10T13:33:26;2.90;;;2.40;;
31282;SDS011;17915;52.540;13.604;2023-05-10T13:35:51;4.90;;;2.00;;
31282;SDS011;17915;52.540;13.604;2023-05-10T13:38:16;14.53;;;2.20;;
31282;SDS011;17915;52.540;13.604;2023-05-10T13:40:42;3.63;;;2.00;;
31282;SDS011;17915;52.540;13.604;2023-05-10T13:43:07;2.57;;;2.10;;
31282;SDS011;17915;52.540;13.604;2023-05-10T13:45:32;8.07;;;1.97;;
31282;SDS011;17915;52.540;13.604;2023-05-10T13:47:58;2.53;;;2.40;;
31282;SDS011;17915;52.540;13.604;2023-05-10T13:50:23;5.75;;;1.90;;
31282;SDS011;17915;52.540;13.604;2023-05-10T13:52:49;3.17;;;2.67;;
31282;SDS011;17915;52.540;13.604;2023-05-10T13:55:14;4.60;;;2.05;;
31282;SDS011;17915;52.540;13.604;2023-05-10T13:57:40;4.00;;;1.97;;
31282;SDS011;17915;52.540;13.604;2023-05-10T14:00:06;4.70;;;2.13;;
31282;SDS011;17915;52.540;13.604;2023-05-10T14:02:32;3.10;;;2.00;;
31282;SDS011;17915;52.540;13.604;2023-05-10T14:04:58;5.40;;;3.20;;
31282;SDS011;17915;52.540;13.604;2023-05-10T14:07:23;6.10;;;2.00;;
31282;SDS011;17915;52.540;13.604;2023-05-10T14:09:48;5.23;;;3.40;;
31282;SDS011;17915;52.540;13.604;2023-05-10T14:12:14;2.90;;;2.43;;
31282;SDS011;17915;52.540;13.604;2023-05-10T14:14:39;4.75;;;3.58;;
31282;SDS011;17915;52.540;13.604;2023-05-10T14:17:05;6.72;;;2.35;;
31282;SDS011;17915;52.540;13.604;2023-05-10T14:19:30;6.47;;;1.93;;
31282;SDS011;17915;52.540;13.604;2023-05-10T14:21:57;6.55;;;2.28;;
31282;SDS011;17915;52.540;13.604;2023-05-10T14:24:22;4.13;;;1.90;;
31282;SDS011;17915;52.540;13.604;2023-05-10T14:26:48;2.00;;;1.90;;
31282;SDS011;17915;52.540;13.604;2023-05-10T14:29:13;3.10;;;2.27;;
31282;SDS011;17915;52.540;13.604;2023-05-10T14:31:39;2.90;;;2.00;;
31282;SDS011;17915;52.540;13.604;2023-05-10T14:36:30;3.22;;;1.80;;
31282;SDS011;17915;52.540;13.604;2023-05-10T14:38:56;4.38;;;3.60;;
31282;SDS011;17915;52.540;13.604;2023-05-10T14:41:22;3.10;;;2.73;;
31282;SDS011;17915;52.540;13.604;2023-05-10T14:43:47;4.30;;;3.05;;
31282;SDS011;17915;52.540;13.604;2023-05-10T14:46:13;2.67;;;2.33;;
31282;SDS011;17915;52.540;13.604;2023-05-10T14:48:38;5.97;;;2.90;;
31282;SDS011;17915;52.540;13.604;2023-05-10T14:51:03;5.63;;;2.57;;
31282;SDS011;17915;52.540;13.604;2023-05-10T14:53:29;4.27;;;2.13;;
31282;SDS011;17915;52.540;13.604;2023-05-10T14:55:54;3.37;;;1.90;;
31282;SDS011;17915;52.540;13.604;2023-05-10T14:58:20;6.77;;;2.90;;
31282;SDS011;17915;52.540;13.604;2023-05-10T15:00:45;6.83;;;2.20;;
31282;SDS011;17915;52.540;13.604;2023-05-10T15:03:11;2.13;;;1.92;;
31282;SDS011;17915;52.540;13.604;2023-05-10T15:05:36;5.03;;;2.35;;
31282;SDS011;17915;52.540;13.604;2023-05-10T15:08:02;2.00;;;1.90;;
31282;SDS011;17915;52.540;13.604;2023-05-10T15:10:29;3.72;;;2.00;;
31282;SDS011;17915;52.540;13.604;2023-05-10T15:12:55;2.75;;;1.67;;
31282;SDS011;17915;52.540;13.604;2023-05-10T15:15:20;1.97;;;1.87;;
31282;SDS011;17915;52.540;13.604;2023-05-10T15:17:47;9.40;;;2.13;;
31282;SDS011;17915;52.540;13.604;2023-05-10T15:20:12;2.60;;;2.42;;
31282;SDS011;17915;52.540;13.604;2023-05-10T15:22:38;2.53;;;2.17;;
31282;SDS011;17915;52.540;13.604;2023-05-10T15:25:03;5.27;;;2.33;;
31282;SDS011;17915;52.540;13.604;2023-05-10T15:27:29;2.28;;;2.10;;